sensor_id;sensor_type;location;lat;lon;timestamp;temperature;humidity
22738;DHT22;11536;50.860;4.286;2022-11-02T00:00:55;15.20;99.90
22738;DHT22;11536;50.860;4.286;2022-11-02T00:03:21;15.20;99.90
22738;DHT22;11536;50.860;4.286;2022-11-02T00:05:46;15.20;99.90
22738;DHT22;11536;50.860;4.286;2022-11-02T00:08:12;15.10;99.90
22738;DHT22;11536;50.860;4.286;2022-11-02T00:10:38;15.10;99.90
22738;DHT22;11536;50.860;4.286;2022-11-02T00:13:03;15.10;99.90
22738;DHT22;11536;50.860;4.286;2022-11-02T00:15:31;15.00;99.90
22738;DHT22;11536;50.860;4.286;2022-11-02T00:18:01;15.00;99.90
22738;DHT22;11536;50.860;4.286;2022-11-02T00:20:28;15.10;99.90
22738;DHT22;11536;50.860;4.286;2022-11-02T00:22:56;15.00;99.90
22738;DHT22;11536;50.860;4.286;2022-11-02T00:25:24;15.10;99.90
22738;DHT22;11536;50.860;4.286;2022-11-02T00:27:50;15.00;99.90
22738;DHT22;11536;50.860;4.286;2022-11-02T00:30:16;15.00;99.90
22738;DHT22;11536;50.860;4.286;2022-11-02T00:32:41;15.00;99.90
22738;DHT22;11536;50.860;4.286;2022-11-02T00:35:07;14.90;99.90
22738;DHT22;11536;50.860;4.286;2022-11-02T00:37:34;14.90;99.90
22738;DHT22;11536;50.860;4.286;2022-11-02T00:40:00;14.90;99.90
22738;DHT22;11536;50.860;4.286;2022-11-02T00:42:26;14.90;99.90
22738;DHT22;11536;50.860;4.286;2022-11-02T00:44:52;14.90;99.90
22738;DHT22;11536;50.860;4.286;2022-11-02T00:47:18;14.90;99.90
22738;DHT22;11536;50.860;4.286;2022-11-02T00:49:43;14.90;99.90
22738;DHT22;11536;50.860;4.286;2022-11-02T00:52:09;15.00;99.90
22738;DHT22;11536;50.860;4.286;2022-11-02T00:54:34;14.90;99.90
22738;DHT22;11536;50.860;4.286;2022-11-02T00:57:00;15.00;99.90
22738;DHT22;11536;50.860;4.286;2022-11-02T00:59:26;14.90;99.90
22738;DHT22;11536;50.860;4.286;2022-11-02T01:01:51;14.90;99.90
22738;DHT22;11536;50.860;4.286;2022-11-02T01:04:17;14.80;99.90
22738;DHT22;11536;50.860;4.286;2022-11-02T01:06:43;14.80;99.90
22738;DHT22;11536;50.860;4.286;2022-11-02T01:09:10;14.80;99.90
22738;DHT22;11536;50.860;4.286;2022-11-02T01:11:36;14.80;99.90
22738;DHT22;11536;50.860;4.286;2022-11-02T01:14:02;14.70;99.90
22738;DHT22;11536;50.860;4.286;2022-11-02T01:16:28;14.70;99.90
22738;DHT22;11536;50.860;4.286;2022-11-02T01:18:55;14.70;99.90
22738;DHT22;11536;50.860;4.286;2022-11-02T01:21:21;14.80;99.90
22738;DHT22;11536;50.860;4.286;2022-11-02T01:23:47;14.70;99.90
22738;DHT22;11536;50.860;4.286;2022-11-02T01:26:13;14.70;99.90
22738;DHT22;11536;50.860;4.286;2022-11-02T01:28:39;14.60;99.90
22738;DHT22;11536;50.860;4.286;2022-11-02T01:31:07;14.60;99.90
22738;DHT22;11536;50.860;4.286;2022-11-02T01:33:32;14.60;99.90
22738;DHT22;11536;50.860;4.286;2022-11-02T01:36:02;14.60;99.90
22738;DHT22;11536;50.860;4.286;2022-11-02T01:38:27;14.60;99.90
22738;DHT22;11536;50.860;4.286;2022-11-02T01:40:53;14.60;99.90
22738;DHT22;11536;50.860;4.286;2022-11-02T01:46:11;14.60;99.90
22738;DHT22;11536;50.860;4.286;2022-11-02T01:48:44;14.60;99.90
22738;DHT22;11536;50.860;4.286;2022-11-02T01:51:35;14.60;99.90
22738;DHT22;11536;50.860;4.286;2022-11-02T01:54:08;14.50;99.90
22738;DHT22;11536;50.860;4.286;2022-11-02T01:56:37;14.50;99.90
22738;DHT22;11536;50.860;4.286;2022-11-02T01:59:08;14.50;99.90
22738;DHT22;11536;50.860;4.286;2022-11-02T02:01:35;14.60;99.90
22738;DHT22;11536;50.860;4.286;2022-11-02T02:04:01;14.60;99.90
22738;DHT22;11536;50.860;4.286;2022-11-02T02:06:27;14.50;99.90
22738;DHT22;11536;50.860;4.286;2022-11-02T02:08:56;14.60;99.90
22738;DHT22;11536;50.860;4.286;2022-11-02T02:11:25;14.60;99.90
22738;DHT22;11536;50.860;4.286;2022-11-02T02:13:59;14.60;99.90
22738;DHT22;11536;50.860;4.286;2022-11-02T02:31:00;14.50;99.90
22738;DHT22;11536;50.860;4.286;2022-11-02T02:33:44;14.50;99.90
22738;DHT22;11536;50.860;4.286;2022-11-02T02:38:48;14.50;99.90
22738;DHT22;11536;50.860;4.286;2022-11-02T02:41:24;14.50;99.90
22738;DHT22;11536;50.860;4.286;2022-11-02T02:43:56;14.50;99.90
22738;DHT22;11536;50.860;4.286;2022-11-02T02:46:32;14.50;99.90
22738;DHT22;11536;50.860;4.286;2022-11-02T02:48:59;14.40;99.90
22738;DHT22;11536;50.860;4.286;2022-11-02T02:51:30;14.40;99.90
22738;DHT22;11536;50.860;4.286;2022-11-02T02:54:04;14.40;99.90
22738;DHT22;11536;50.860;4.286;2022-11-02T02:56:47;14.40;99.90
22738;DHT22;11536;50.860;4.286;2022-11-02T02:59:15;14.30;99.90
22738;DHT22;11536;50.860;4.286;2022-11-02T03:01:45;14.30;99.90
22738;DHT22;11536;50.860;4.286;2022-11-02T03:04:13;14.30;99.90
22738;DHT22;11536;50.860;4.286;2022-11-02T03:06:42;14.30;99.90
22738;DHT22;11536;50.860;4.286;2022-11-02T03:14:37;14.20;99.90
22738;DHT22;11536;50.860;4.286;2022-11-02T03:17:26;14.30;99.90
22738;DHT22;11536;50.860;4.286;2022-11-02T03:20:03;14.20;99.90
22738;DHT22;11536;50.860;4.286;2022-11-02T03:22:40;14.20;99.90
22738;DHT22;11536;50.860;4.286;2022-11-02T03:30:22;14.20;99.90
22738;DHT22;11536;50.860;4.286;2022-11-02T03:35:34;14.10;99.90
22738;DHT22;11536;50.860;4.286;2022-11-02T03:38:10;14.10;99.90
22738;DHT22;11536;50.860;4.286;2022-11-02T03:40:41;14.10;99.90
22738;DHT22;11536;50.860;4.286;2022-11-02T03:43:09;14.10;99.90
22738;DHT22;11536;50.860;4.286;2022-11-02T03:45:39;14.00;99.90
22738;DHT22;11536;50.860;4.286;2022-11-02T03:48:07;14.00;99.90
22738;DHT22;11536;50.860;4.286;2022-11-02T03:50:36;14.00;99.90
22738;DHT22;11536;50.860;4.286;2022-11-02T03:53:06;14.00;99.90
22738;DHT22;11536;50.860;4.286;2022-11-02T03:55:37;13.90;99.90
22738;DHT22;11536;50.860;4.286;2022-11-02T03:58:04;14.10;99.90
22738;DHT22;11536;50.860;4.286;2022-11-02T04:00:32;13.90;99.90
22738;DHT22;11536;50.860;4.286;2022-11-02T04:03:00;13.90;99.90
22738;DHT22;11536;50.860;4.286;2022-11-02T04:05:33;13.90;99.90
22738;DHT22;11536;50.860;4.286;2022-11-02T04:07:59;13.90;99.90
22738;DHT22;11536;50.860;4.286;2022-11-02T04:10:44;13.90;99.90
22738;DHT22;11536;50.860;4.286;2022-11-02T04:13:28;13.80;99.90
22738;DHT22;11536;50.860;4.286;2022-11-02T04:16:12;13.80;99.90
22738;DHT22;11536;50.860;4.286;2022-11-02T04:18:38;13.80;99.90
22738;DHT22;11536;50.860;4.286;2022-11-02T04:21:22;13.80;99.90
22738;DHT22;11536;50.860;4.286;2022-11-02T04:23:48;13.80;99.90
22738;DHT22;11536;50.860;4.286;2022-11-02T04:26:32;13.80;99.90
22738;DHT22;11536;50.860;4.286;2022-11-02T04:28:57;13.80;99.90
22738;DHT22;11536;50.860;4.286;2022-11-02T04:31:23;13.70;99.90
22738;DHT22;11536;50.860;4.286;2022-11-02T04:33:49;13.70;99.90
22738;DHT22;11536;50.860;4.286;2022-11-02T04:36:14;13.70;99.90
22738;DHT22;11536;50.860;4.286;2022-11-02T04:38:40;13.70;99.90
22738;DHT22;11536;50.860;4.286;2022-11-02T04:41:10;13.70;99.90
22738;DHT22;11536;50.860;4.286;2022-11-02T04:43:55;13.70;99.90
22738;DHT22;11536;50.860;4.286;2022-11-02T04:46:23;13.70;99.90
22738;DHT22;11536;50.860;4.286;2022-11-02T04:48:49;13.70;99.90
22738;DHT22;11536;50.860;4.286;2022-11-02T04:51:15;13.60;99.90
22738;DHT22;11536;50.860;4.286;2022-11-02T04:53:41;13.70;99.90
22738;DHT22;11536;50.860;4.286;2022-11-02T04:56:07;13.70;99.90
22738;DHT22;11536;50.860;4.286;2022-11-02T04:58:33;13.50;99.90
22738;DHT22;11536;50.860;4.286;2022-11-02T05:01:06;13.60;99.90
22738;DHT22;11536;50.860;4.286;2022-11-02T05:03:32;13.50;99.90
22738;DHT22;11536;50.860;4.286;2022-11-02T05:05:58;13.50;99.90
22738;DHT22;11536;50.860;4.286;2022-11-02T05:08:23;13.50;99.90
22738;DHT22;11536;50.860;4.286;2022-11-02T05:10:52;13.50;99.90
22738;DHT22;11536;50.860;4.286;2022-11-02T05:13:17;13.50;99.90
22738;DHT22;11536;50.860;4.286;2022-11-02T05:15:43;13.50;99.90
22738;DHT22;11536;50.860;4.286;2022-11-02T05:18:09;13.50;99.90
22738;DHT22;11536;50.860;4.286;2022-11-02T05:20:34;13.50;99.90
22738;DHT22;11536;50.860;4.286;2022-11-02T05:23:00;13.50;99.90
22738;DHT22;11536;50.860;4.286;2022-11-02T05:25:25;13.40;99.90
22738;DHT22;11536;50.860;4.286;2022-11-02T05:27:51;13.40;99.90
22738;DHT22;11536;50.860;4.286;2022-11-02T05:30:16;13.40;99.90
22738;DHT22;11536;50.860;4.286;2022-11-02T05:32:42;13.40;99.90
22738;DHT22;11536;50.860;4.286;2022-11-02T05:35:08;13.40;99.90
22738;DHT22;11536;50.860;4.286;2022-11-02T05:37:34;13.40;99.90
22738;DHT22;11536;50.860;4.286;2022-11-02T05:39:59;13.40;99.90
22738;DHT22;11536;50.860;4.286;2022-11-02T05:42:25;13.30;99.90
22738;DHT22;11536;50.860;4.286;2022-11-02T05:44:50;13.30;99.90
22738;DHT22;11536;50.860;4.286;2022-11-02T05:47:16;13.30;99.90
22738;DHT22;11536;50.860;4.286;2022-11-02T05:49:41;13.20;99.90
22738;DHT22;11536;50.860;4.286;2022-11-02T05:52:07;13.20;99.90
22738;DHT22;11536;50.860;4.286;2022-11-02T05:54:33;13.30;99.90
22738;DHT22;11536;50.860;4.286;2022-11-02T05:56:58;13.30;99.90
22738;DHT22;11536;50.860;4.286;2022-11-02T05:59:24;13.20;99.90
22738;DHT22;11536;50.860;4.286;2022-11-02T06:01:49;13.20;99.90
22738;DHT22;11536;50.860;4.286;2022-11-02T06:04:15;13.30;99.90
22738;DHT22;11536;50.860;4.286;2022-11-02T06:06:41;13.20;99.90
22738;DHT22;11536;50.860;4.286;2022-11-02T06:09:06;13.20;99.90
22738;DHT22;11536;50.860;4.286;2022-11-02T06:11:32;13.20;99.90
22738;DHT22;11536;50.860;4.286;2022-11-02T06:13:57;13.20;99.90
22738;DHT22;11536;50.860;4.286;2022-11-02T06:16:23;13.20;99.90
22738;DHT22;11536;50.860;4.286;2022-11-02T06:18:49;13.10;99.90
22738;DHT22;11536;50.860;4.286;2022-11-02T06:21:15;13.10;99.90
22738;DHT22;11536;50.860;4.286;2022-11-02T06:23:40;13.10;99.90
22738;DHT22;11536;50.860;4.286;2022-11-02T06:26:08;13.20;99.90
22738;DHT22;11536;50.860;4.286;2022-11-02T06:28:35;13.10;99.90
22738;DHT22;11536;50.860;4.286;2022-11-02T06:31:00;13.10;99.90
22738;DHT22;11536;50.860;4.286;2022-11-02T06:33:26;13.10;99.90
22738;DHT22;11536;50.860;4.286;2022-11-02T06:35:52;13.20;99.90
22738;DHT22;11536;50.860;4.286;2022-11-02T06:38:19;13.10;99.90
22738;DHT22;11536;50.860;4.286;2022-11-02T06:43:19;13.10;99.90
22738;DHT22;11536;50.860;4.286;2022-11-02T06:45:45;13.00;99.90
22738;DHT22;11536;50.860;4.286;2022-11-02T06:48:11;13.00;99.90
22738;DHT22;11536;50.860;4.286;2022-11-02T06:50:36;13.00;99.90
22738;DHT22;11536;50.860;4.286;2022-11-02T06:53:02;12.90;99.90
22738;DHT22;11536;50.860;4.286;2022-11-02T06:55:28;13.00;99.90
22738;DHT22;11536;50.860;4.286;2022-11-02T06:57:53;13.00;99.90
22738;DHT22;11536;50.860;4.286;2022-11-02T07:00:19;13.10;99.90
22738;DHT22;11536;50.860;4.286;2022-11-02T07:02:45;13.00;99.90
22738;DHT22;11536;50.860;4.286;2022-11-02T07:05:11;13.00;99.90
22738;DHT22;11536;50.860;4.286;2022-11-02T07:07:37;13.00;99.90
22738;DHT22;11536;50.860;4.286;2022-11-02T07:10:04;12.90;99.90
22738;DHT22;11536;50.860;4.286;2022-11-02T07:12:31;12.90;99.90
22738;DHT22;11536;50.860;4.286;2022-11-02T07:14:57;12.90;99.90
22738;DHT22;11536;50.860;4.286;2022-11-02T07:17:23;13.00;99.90
22738;DHT22;11536;50.860;4.286;2022-11-02T07:19:48;12.90;99.90
22738;DHT22;11536;50.860;4.286;2022-11-02T07:22:14;13.00;99.90
22738;DHT22;11536;50.860;4.286;2022-11-02T07:24:39;12.90;99.90
22738;DHT22;11536;50.860;4.286;2022-11-02T07:27:05;13.00;99.90
22738;DHT22;11536;50.860;4.286;2022-11-02T07:29:31;12.80;99.90
22738;DHT22;11536;50.860;4.286;2022-11-02T07:31:56;12.80;99.90
22738;DHT22;11536;50.860;4.286;2022-11-02T07:34:22;12.80;99.90
22738;DHT22;11536;50.860;4.286;2022-11-02T07:36:47;12.70;99.90
22738;DHT22;11536;50.860;4.286;2022-11-02T07:39:13;12.80;99.90
22738;DHT22;11536;50.860;4.286;2022-11-02T07:41:39;12.80;99.90
22738;DHT22;11536;50.860;4.286;2022-11-02T07:44:04;12.80;99.90
22738;DHT22;11536;50.860;4.286;2022-11-02T07:46:30;12.80;99.90
22738;DHT22;11536;50.860;4.286;2022-11-02T07:48:56;12.80;99.90
22738;DHT22;11536;50.860;4.286;2022-11-02T07:51:22;12.80;99.90
22738;DHT22;11536;50.860;4.286;2022-11-02T07:53:47;12.80;99.90
22738;DHT22;11536;50.860;4.286;2022-11-02T07:56:13;12.80;99.90
22738;DHT22;11536;50.860;4.286;2022-11-02T07:58:38;12.80;99.90
22738;DHT22;11536;50.860;4.286;2022-11-02T08:01:04;12.80;99.90
22738;DHT22;11536;50.860;4.286;2022-11-02T08:03:29;12.90;99.90
22738;DHT22;11536;50.860;4.286;2022-11-02T08:05:55;12.80;99.90
22738;DHT22;11536;50.860;4.286;2022-11-02T08:08:22;12.90;99.90
22738;DHT22;11536;50.860;4.286;2022-11-02T08:10:50;12.90;99.90
22738;DHT22;11536;50.860;4.286;2022-11-02T08:13:22;12.90;99.90
22738;DHT22;11536;50.860;4.286;2022-11-02T08:15:49;12.90;99.90
22738;DHT22;11536;50.860;4.286;2022-11-02T08:18:16;12.90;99.90
22738;DHT22;11536;50.860;4.286;2022-11-02T08:20:43;12.90;99.90
22738;DHT22;11536;50.860;4.286;2022-11-02T08:23:10;13.00;99.90
22738;DHT22;11536;50.860;4.286;2022-11-02T08:25:37;12.90;99.90
22738;DHT22;11536;50.860;4.286;2022-11-02T08:28:04;12.90;99.90
22738;DHT22;11536;50.860;4.286;2022-11-02T08:30:31;13.00;99.90
22738;DHT22;11536;50.860;4.286;2022-11-02T08:33:05;13.10;99.90
22738;DHT22;11536;50.860;4.286;2022-11-02T08:35:31;13.10;99.90
22738;DHT22;11536;50.860;4.286;2022-11-02T08:37:57;13.10;99.90
22738;DHT22;11536;50.860;4.286;2022-11-02T08:40:25;13.10;99.90
22738;DHT22;11536;50.860;4.286;2022-11-02T08:43:08;13.10;99.90
22738;DHT22;11536;50.860;4.286;2022-11-02T08:45:35;13.10;99.90
22738;DHT22;11536;50.860;4.286;2022-11-02T08:48:01;13.30;99.90
22738;DHT22;11536;50.860;4.286;2022-11-02T08:50:26;13.20;99.90
22738;DHT22;11536;50.860;4.286;2022-11-02T08:52:52;13.10;99.90
22738;DHT22;11536;50.860;4.286;2022-11-02T08:55:18;13.10;99.90
22738;DHT22;11536;50.860;4.286;2022-11-02T08:57:49;13.20;99.90
22738;DHT22;11536;50.860;4.286;2022-11-02T09:00:16;13.20;99.90
22738;DHT22;11536;50.860;4.286;2022-11-02T09:02:42;13.30;99.90
22738;DHT22;11536;50.860;4.286;2022-11-02T09:05:08;13.30;99.90
22738;DHT22;11536;50.860;4.286;2022-11-02T09:07:34;13.30;99.90
22738;DHT22;11536;50.860;4.286;2022-11-02T09:10:00;13.40;99.90
22738;DHT22;11536;50.860;4.286;2022-11-02T09:12:26;13.40;99.90
22738;DHT22;11536;50.860;4.286;2022-11-02T09:14:51;13.40;99.90
22738;DHT22;11536;50.860;4.286;2022-11-02T09:17:17;13.40;99.90
22738;DHT22;11536;50.860;4.286;2022-11-02T09:19:42;13.50;99.90
22738;DHT22;11536;50.860;4.286;2022-11-02T09:22:08;13.60;99.90
22738;DHT22;11536;50.860;4.286;2022-11-02T09:24:34;13.50;99.90
22738;DHT22;11536;50.860;4.286;2022-11-02T09:26:59;13.60;99.90
22738;DHT22;11536;50.860;4.286;2022-11-02T09:29:25;13.60;99.90
22738;DHT22;11536;50.860;4.286;2022-11-02T09:31:51;13.60;99.90
22738;DHT22;11536;50.860;4.286;2022-11-02T09:34:16;13.60;99.90
22738;DHT22;11536;50.860;4.286;2022-11-02T09:36:42;13.70;99.90
22738;DHT22;11536;50.860;4.286;2022-11-02T09:39:08;13.70;99.90
22738;DHT22;11536;50.860;4.286;2022-11-02T09:41:49;13.80;99.90
22738;DHT22;11536;50.860;4.286;2022-11-02T09:44:21;13.80;99.90
22738;DHT22;11536;50.860;4.286;2022-11-02T09:46:52;13.80;99.90
22738;DHT22;11536;50.860;4.286;2022-11-02T09:49:19;13.80;99.90
22738;DHT22;11536;50.860;4.286;2022-11-02T09:51:50;13.90;99.90
22738;DHT22;11536;50.860;4.286;2022-11-02T09:54:34;13.90;99.90
22738;DHT22;11536;50.860;4.286;2022-11-02T09:57:13;14.00;99.90
22738;DHT22;11536;50.860;4.286;2022-11-02T09:59:40;14.00;99.90
22738;DHT22;11536;50.860;4.286;2022-11-02T10:05:26;14.10;99.90
22738;DHT22;11536;50.860;4.286;2022-11-02T10:10:58;14.20;99.90
22738;DHT22;11536;50.860;4.286;2022-11-02T10:13:37;14.20;99.90
22738;DHT22;11536;50.860;4.286;2022-11-02T10:16:27;14.30;99.90
22738;DHT22;11536;50.860;4.286;2022-11-02T10:18:55;14.40;99.90
22738;DHT22;11536;50.860;4.286;2022-11-02T10:21:35;14.40;99.90
22738;DHT22;11536;50.860;4.286;2022-11-02T10:26:58;14.60;99.90
22738;DHT22;11536;50.860;4.286;2022-11-02T10:30:00;14.60;99.90
22738;DHT22;11536;50.860;4.286;2022-11-02T10:32:29;14.60;99.90
22738;DHT22;11536;50.860;4.286;2022-11-02T10:34:55;14.70;99.90
22738;DHT22;11536;50.860;4.286;2022-11-02T10:46:09;14.80;99.90
22738;DHT22;11536;50.860;4.286;2022-11-02T10:48:50;14.80;99.90
22738;DHT22;11536;50.860;4.286;2022-11-02T10:51:19;14.90;99.90
22738;DHT22;11536;50.860;4.286;2022-11-02T10:53:50;14.90;99.90
22738;DHT22;11536;50.860;4.286;2022-11-02T10:56:19;14.90;99.90
22738;DHT22;11536;50.860;4.286;2022-11-02T11:01:35;15.00;99.90
22738;DHT22;11536;50.860;4.286;2022-11-02T11:04:20;15.10;99.90
22738;DHT22;11536;50.860;4.286;2022-11-02T11:06:47;15.10;99.90
22738;DHT22;11536;50.860;4.286;2022-11-02T11:09:24;15.10;99.90
22738;DHT22;11536;50.860;4.286;2022-11-02T11:11:57;15.20;99.90
22738;DHT22;11536;50.860;4.286;2022-11-02T11:14:24;15.20;99.90
22738;DHT22;11536;50.860;4.286;2022-11-02T11:16:52;15.30;99.90
22738;DHT22;11536;50.860;4.286;2022-11-02T11:19:40;15.30;99.90
22738;DHT22;11536;50.860;4.286;2022-11-02T11:27:45;15.60;99.90
22738;DHT22;11536;50.860;4.286;2022-11-02T11:30:32;15.60;99.90
22738;DHT22;11536;50.860;4.286;2022-11-02T11:32:59;15.60;99.90
22738;DHT22;11536;50.860;4.286;2022-11-02T11:35:31;15.60;99.90
22738;DHT22;11536;50.860;4.286;2022-11-02T11:38:03;15.60;99.90
22738;DHT22;11536;50.860;4.286;2022-11-02T11:40:35;15.70;99.90
22738;DHT22;11536;50.860;4.286;2022-11-02T11:43:03;15.70;99.90
22738;DHT22;11536;50.860;4.286;2022-11-02T11:45:31;15.80;99.90
22738;DHT22;11536;50.860;4.286;2022-11-02T11:50:46;15.90;99.90
22738;DHT22;11536;50.860;4.286;2022-11-02T11:55:55;16.00;99.90
22738;DHT22;11536;50.860;4.286;2022-11-02T11:58:26;16.10;99.90
22738;DHT22;11536;50.860;4.286;2022-11-02T12:09:20;16.50;99.90
22738;DHT22;11536;50.860;4.286;2022-11-02T12:17:34;16.90;99.90
22738;DHT22;11536;50.860;4.286;2022-11-02T12:25:54;17.30;99.90
22738;DHT22;11536;50.860;4.286;2022-11-02T12:34:30;17.70;99.90
22738;DHT22;11536;50.860;4.286;2022-11-02T12:37:59;17.90;99.90
22738;DHT22;11536;50.860;4.286;2022-11-02T12:42:35;18.10;99.90
22738;DHT22;11536;50.860;4.286;2022-11-02T12:45:24;18.10;99.90
22738;DHT22;11536;50.860;4.286;2022-11-02T12:47:58;18.20;99.90
22738;DHT22;11536;50.860;4.286;2022-11-02T12:50:49;18.20;99.90
22738;DHT22;11536;50.860;4.286;2022-11-02T12:55:37;18.10;99.90
22738;DHT22;11536;50.860;4.286;2022-11-02T12:58:05;18.10;99.90
22738;DHT22;11536;50.860;4.286;2022-11-02T13:00:32;18.10;99.90
22738;DHT22;11536;50.860;4.286;2022-11-02T13:05:27;18.10;99.90
22738;DHT22;11536;50.860;4.286;2022-11-02T13:07:58;18.10;99.90
22738;DHT22;11536;50.860;4.286;2022-11-02T13:10:27;18.10;99.90
22738;DHT22;11536;50.860;4.286;2022-11-02T13:12:56;17.90;99.90
22738;DHT22;11536;50.860;4.286;2022-11-02T13:15:22;17.90;99.90
22738;DHT22;11536;50.860;4.286;2022-11-02T13:17:51;18.00;99.90
22738;DHT22;11536;50.860;4.286;2022-11-02T13:20:20;18.00;99.90
22738;DHT22;11536;50.860;4.286;2022-11-02T13:22:49;18.00;99.90
22738;DHT22;11536;50.860;4.286;2022-11-02T13:25:20;17.90;99.90
22738;DHT22;11536;50.860;4.286;2022-11-02T13:27:47;17.90;99.90
22738;DHT22;11536;50.860;4.286;2022-11-02T13:30:15;17.70;99.90
22738;DHT22;11536;50.860;4.286;2022-11-02T13:35:12;17.50;99.90
22738;DHT22;11536;50.860;4.286;2022-11-02T13:37:40;17.40;99.90
22738;DHT22;11536;50.860;4.286;2022-11-02T13:40:31;17.40;99.90
22738;DHT22;11536;50.860;4.286;2022-11-02T13:48:20;17.40;99.90
22738;DHT22;11536;50.860;4.286;2022-11-02T13:50:49;17.40;99.90
22738;DHT22;11536;50.860;4.286;2022-11-02T13:53:21;17.40;99.90
22738;DHT22;11536;50.860;4.286;2022-11-02T13:55:52;17.40;99.90
22738;DHT22;11536;50.860;4.286;2022-11-02T14:02:23;17.30;99.90
22738;DHT22;11536;50.860;4.286;2022-11-02T14:04:49;17.30;99.90
22738;DHT22;11536;50.860;4.286;2022-11-02T14:07:25;17.30;99.90
22738;DHT22;11536;50.860;4.286;2022-11-02T14:09:56;17.30;99.90
22738;DHT22;11536;50.860;4.286;2022-11-02T14:30:44;17.10;99.90
22738;DHT22;11536;50.860;4.286;2022-11-02T14:33:13;16.90;99.90
22738;DHT22;11536;50.860;4.286;2022-11-02T14:35:42;16.90;99.90
22738;DHT22;11536;50.860;4.286;2022-11-02T14:40:59;16.70;99.90
22738;DHT22;11536;50.860;4.286;2022-11-02T14:46:17;16.70;99.90
22738;DHT22;11536;50.860;4.286;2022-11-02T14:48:45;16.70;99.90
22738;DHT22;11536;50.860;4.286;2022-11-02T14:51:14;16.50;99.90
22738;DHT22;11536;50.860;4.286;2022-11-02T14:53:41;16.50;99.90
22738;DHT22;11536;50.860;4.286;2022-11-02T14:56:07;16.50;99.90
22738;DHT22;11536;50.860;4.286;2022-11-02T14:58:34;16.50;99.90
22738;DHT22;11536;50.860;4.286;2022-11-02T15:01:02;16.50;99.90
22738;DHT22;11536;50.860;4.286;2022-11-02T15:03:32;16.40;99.90
22738;DHT22;11536;50.860;4.286;2022-11-02T15:08:51;16.40;99.90
22738;DHT22;11536;50.860;4.286;2022-11-02T15:12:18;16.30;99.90
22738;DHT22;11536;50.860;4.286;2022-11-02T15:14:31;16.30;99.90
22738;DHT22;11536;50.860;4.286;2022-11-02T15:19:42;16.30;99.90
22738;DHT22;11536;50.860;4.286;2022-11-02T15:25:40;16.20;99.90
22738;DHT22;11536;50.860;4.286;2022-11-02T15:27:41;16.20;99.90
22738;DHT22;11536;50.860;4.286;2022-11-02T15:30:14;16.20;99.90
22738;DHT22;11536;50.860;4.286;2022-11-02T15:33:03;16.20;99.90
22738;DHT22;11536;50.860;4.286;2022-11-02T15:35:33;16.20;99.90
22738;DHT22;11536;50.860;4.286;2022-11-02T15:38:00;16.10;99.90
22738;DHT22;11536;50.860;4.286;2022-11-02T15:46:05;16.00;99.90
22738;DHT22;11536;50.860;4.286;2022-11-02T15:51:15;16.00;99.90
22738;DHT22;11536;50.860;4.286;2022-11-02T15:56:24;15.90;99.90
22738;DHT22;11536;50.860;4.286;2022-11-02T16:01:20;15.80;99.90
22738;DHT22;11536;50.860;4.286;2022-11-02T16:03:47;15.80;99.90
22738;DHT22;11536;50.860;4.286;2022-11-02T16:06:14;15.80;99.90
22738;DHT22;11536;50.860;4.286;2022-11-02T16:08:46;15.70;99.90
22738;DHT22;11536;50.860;4.286;2022-11-02T16:11:16;15.70;99.90
22738;DHT22;11536;50.860;4.286;2022-11-02T16:13:42;15.70;99.90
22738;DHT22;11536;50.860;4.286;2022-11-02T16:16:15;15.70;99.90
22738;DHT22;11536;50.860;4.286;2022-11-02T16:18:41;15.60;99.90
22738;DHT22;11536;50.860;4.286;2022-11-02T16:21:14;15.60;99.90
22738;DHT22;11536;50.860;4.286;2022-11-02T16:23:41;15.50;99.90
22738;DHT22;11536;50.860;4.286;2022-11-02T16:26:11;15.50;99.90
22738;DHT22;11536;50.860;4.286;2022-11-02T16:28:45;15.40;99.90
22738;DHT22;11536;50.860;4.286;2022-11-02T16:31:15;15.40;99.90
22738;DHT22;11536;50.860;4.286;2022-11-02T16:33:51;15.40;99.90
22738;DHT22;11536;50.860;4.286;2022-11-02T16:36:21;15.30;99.90
22738;DHT22;11536;50.860;4.286;2022-11-02T16:39:34;15.30;99.90
22738;DHT22;11536;50.860;4.286;2022-11-02T16:41:34;15.30;99.90
22738;DHT22;11536;50.860;4.286;2022-11-02T16:44:09;15.20;99.90
22738;DHT22;11536;50.860;4.286;2022-11-02T16:46:39;15.20;99.90
22738;DHT22;11536;50.860;4.286;2022-11-02T16:49:10;15.20;99.90
22738;DHT22;11536;50.860;4.286;2022-11-02T16:51:36;15.10;99.90
22738;DHT22;11536;50.860;4.286;2022-11-02T16:54:23;15.10;99.90
22738;DHT22;11536;50.860;4.286;2022-11-02T16:56:50;15.10;99.90
22738;DHT22;11536;50.860;4.286;2022-11-02T16:59:16;15.00;99.90
22738;DHT22;11536;50.860;4.286;2022-11-02T17:01:42;15.00;99.90
22738;DHT22;11536;50.860;4.286;2022-11-02T17:04:30;15.00;99.90
22738;DHT22;11536;50.860;4.286;2022-11-02T17:06:55;15.00;99.90
22738;DHT22;11536;50.860;4.286;2022-11-02T17:09:23;14.90;99.90
22738;DHT22;11536;50.860;4.286;2022-11-02T17:11:50;14.90;99.90
22738;DHT22;11536;50.860;4.286;2022-11-02T17:14:17;14.90;99.90
22738;DHT22;11536;50.860;4.286;2022-11-02T17:20:04;14.90;99.90
22738;DHT22;11536;50.860;4.286;2022-11-02T17:24:44;14.80;99.90
22738;DHT22;11536;50.860;4.286;2022-11-02T17:29:42;14.80;99.90
22738;DHT22;11536;50.860;4.286;2022-11-02T17:32:11;14.80;99.90
22738;DHT22;11536;50.860;4.286;2022-11-02T17:34:38;14.80;99.90
22738;DHT22;11536;50.860;4.286;2022-11-02T17:37:04;14.80;99.90
22738;DHT22;11536;50.860;4.286;2022-11-02T17:39:30;14.80;99.90
22738;DHT22;11536;50.860;4.286;2022-11-02T17:41:57;14.70;99.90
22738;DHT22;11536;50.860;4.286;2022-11-02T17:44:41;14.80;99.90
22738;DHT22;11536;50.860;4.286;2022-11-02T17:47:14;14.80;99.90
22738;DHT22;11536;50.860;4.286;2022-11-02T17:49:40;14.80;99.90
22738;DHT22;11536;50.860;4.286;2022-11-02T17:52:06;14.70;99.90
22738;DHT22;11536;50.860;4.286;2022-11-02T17:54:34;14.80;99.90
22738;DHT22;11536;50.860;4.286;2022-11-02T17:57:00;14.70;99.90
22738;DHT22;11536;50.860;4.286;2022-11-02T17:59:26;14.70;99.90
22738;DHT22;11536;50.860;4.286;2022-11-02T18:01:51;14.70;99.90
22738;DHT22;11536;50.860;4.286;2022-11-02T18:04:17;14.70;99.90
22738;DHT22;11536;50.860;4.286;2022-11-02T18:06:42;14.70;99.90
22738;DHT22;11536;50.860;4.286;2022-11-02T18:09:08;14.70;99.90
22738;DHT22;11536;50.860;4.286;2022-11-02T18:11:38;14.70;99.90
22738;DHT22;11536;50.860;4.286;2022-11-02T18:14:04;14.70;99.90
22738;DHT22;11536;50.860;4.286;2022-11-02T18:16:30;14.70;99.90
22738;DHT22;11536;50.860;4.286;2022-11-02T18:18:56;14.60;99.90
22738;DHT22;11536;50.860;4.286;2022-11-02T18:21:22;14.60;99.90
22738;DHT22;11536;50.860;4.286;2022-11-02T18:23:47;14.60;99.90
22738;DHT22;11536;50.860;4.286;2022-11-02T18:26:13;14.70;99.90
22738;DHT22;11536;50.860;4.286;2022-11-02T18:28:39;14.60;99.90